Time;durP1;ratioP1;P1;durP2;ratioP2;P2;SDS_P1;SDS_P2;PMS_P1;PMS_P2;Temp;Humidity;BMP_temperature;BMP_pressure;BME280_temperature;BME280_humidity;BME280_pressure;Samples;Min_cycle;Max_cycle;Signal;HPM_P1;HPM_P2
2023/01/05 00:01:50;;;;;;;0.80;0.80;;;8.30;99.90;;;;;;5021225;28;20435;-59
2023/01/05 00:04:16;;;;;;;1.27;1.10;;;8.30;99.90;;;;;;5019136;28;20712;-59
2023/01/05 00:06:42;;;;;;;1.00;1.00;;;8.30;99.90;;;;;;5018479;28;20431;-59
2023/01/05 00:09:11;;;;;;;1.00;0.90;;;8.40;99.90;;;;;;5026034;28;20175;-59
2023/01/05 00:22:50;;;;;;;1.10;1.10;;;8.40;99.90;;;;;;5020003;28;20873;-58
2023/01/05 00:25:18;;;;;;;2.13;1.20;;;8.40;99.90;;;;;;5026935;28;20445;-58
2023/01/05 00:27:46;;;;;;;2.63;1.90;;;8.40;99.90;;;;;;5024695;28;20452;-58
2023/01/05 00:30:14;;;;;;;2.73;1.70;;;8.40;99.90;;;;;;5014378;28;20439;-58
2023/01/05 00:32:41;;;;;;;1.30;1.20;;;8.40;99.90;;;;;;5023416;28;20466;-58
2023/01/05 00:35:08;;;;;;;1.30;1.20;;;8.40;99.90;;;;;;5029508;28;20987;-58
2023/01/05 00:37:35;;;;;;;1.20;1.10;;;8.40;99.90;;;;;;5029985;28;20876;-59
2023/01/05 00:40:00;;;;;;;1.40;1.30;;;8.40;99.90;;;;;;5024315;28;20433;-58
2023/01/05 00:42:26;;;;;;;1.53;1.20;;;8.40;99.90;;;;;;5023211;28;20434;-58
2023/01/05 00:44:52;;;;;;;1.90;1.67;;;8.40;99.90;;;;;;5020743;28;20242;-61
2023/01/05 00:47:17;;;;;;;1.50;1.40;;;8.40;99.90;;;;;;5016957;28;20211;-58
2023/01/05 00:49:43;;;;;;;2.00;1.47;;;8.40;99.90;;;;;;5020672;28;20188;-58
2023/01/05 00:52:08;;;;;;;2.20;1.17;;;8.40;99.90;;;;;;5026851;28;20200;-58
2023/01/05 00:54:34;;;;;;;1.50;1.40;;;8.40;99.90;;;;;;5026215;28;20186;-59
2023/01/05 00:57:00;;;;;;;1.43;1.33;;;8.40;99.90;;;;;;5028177;28;20204;-57
2023/01/05 00:59:26;;;;;;;1.57;1.37;;;8.40;99.90;;;;;;5021064;28;20172;-58
2023/01/05 01:01:53;;;;;;;2.10;1.30;;;8.30;99.90;;;;;;5021313;28;20779;-57
2023/01/05 01:04:19;;;;;;;4.30;1.33;;;8.30;99.90;;;;;;5014702;28;20944;-58
2023/01/05 01:06:45;;;;;;;1.40;1.30;;;8.30;99.90;;;;;;5023046;28;20462;-59
2023/01/05 01:09:12;;;;;;;1.20;1.10;;;8.30;99.90;;;;;;5035204;28;20949;-58
2023/01/05 01:11:38;;;;;;;0.93;0.93;;;8.30;99.90;;;;;;5045385;28;21059;-58
2023/01/05 01:14:06;;;;;;;1.00;1.00;;;8.30;99.90;;;;;;5024432;28;20435;-58
2023/01/05 01:16:31;;;;;;;0.90;0.90;;;8.30;99.90;;;;;;5014939;28;20451;-59
2023/01/05 01:18:58;;;;;;;1.07;1.07;;;8.30;99.90;;;;;;5014777;28;20414;-59
2023/01/05 01:21:24;;;;;;;1.00;1.00;;;8.30;99.90;;;;;;5030824;28;20270;-58
2023/01/05 01:23:49;;;;;;;1.10;1.03;;;8.20;99.90;;;;;;5022964;28;20458;-60
2023/01/05 01:26:15;;;;;;;1.13;1.03;;;8.20;99.90;;;;;;5033058;28;20223;-59
2023/01/05 01:28:41;;;;;;;1.23;1.13;;;8.20;99.90;;;;;;5026625;28;20615;-58
2023/01/05 01:31:07;;;;;;;1.10;1.00;;;8.20;99.90;;;;;;5016902;28;20200;-58
2023/01/05 01:33:33;;;;;;;1.37;1.27;;;8.20;99.90;;;;;;5025559;28;20187;-58
2023/01/05 01:36:03;;;;;;;1.00;1.00;;;8.20;99.90;;;;;;5016965;28;20168;-58
2023/01/05 01:38:29;;;;;;;1.00;1.00;;;8.20;99.90;;;;;;5027676;28;20837;-58
2023/01/05 01:40:54;;;;;;;1.00;0.93;;;8.20;99.90;;;;;;5017003;28;20445;-58
2023/01/05 01:43:48;;;;;;;1.93;1.00;;;8.20;99.90;;;;;;5022771;28;20183;-61
2023/01/05 01:46:15;;;;;;;0.93;0.93;;;8.20;99.90;;;;;;5029886;28;20207;-58
2023/01/05 01:49:00;;;;;;;0.93;0.93;;;8.20;99.90;;;;;;5025126;28;20434;-58
2023/01/05 01:51:47;;;;;;;1.03;1.00;;;8.20;99.90;;;;;;5011421;28;20967;-57
2023/01/05 01:54:16;;;;;;;2.10;1.13;;;8.20;99.90;;;;;;5020947;28;20877;-58
2023/01/05 01:56:52;;;;;;;0.90;0.90;;;8.20;99.90;;;;;;5040913;28;20456;-57
2023/01/05 01:59:18;;;;;;;0.90;0.90;;;8.20;99.90;;;;;;5024342;28;20434;-58
2023/01/05 02:01:44;;;;;;;2.07;1.00;;;8.20;99.90;;;;;;5010204;28;20924;-58
2023/01/05 02:04:10;;;;;;;0.90;0.90;;;8.20;99.90;;;;;;5022997;28;20247;-58
2023/01/05 02:06:37;;;;;;;1.00;1.00;;;8.20;99.90;;;;;;5021764;28;20458;-58
2023/01/05 02:09:03;;;;;;;0.90;0.90;;;8.10;99.90;;;;;;5026850;28;20430;-58
2023/01/05 02:11:31;;;;;;;1.10;1.10;;;8.10;99.90;;;;;;5026270;28;20618;-58
2023/01/05 02:14:24;;;;;;;1.00;1.00;;;8.10;99.90;;;;;;5029100;28;20521;-61
2023/01/05 02:17:38;;;;;;;2.13;1.70;;;8.10;99.90;;;;;;5028143;28;20504;-59
2023/01/05 02:20:30;;;;;;;1.00;1.00;;;8.10;99.90;;;;;;5005405;28;20430;-59
2023/01/05 02:23:41;;;;;;;0.90;0.90;;;8.10;99.90;;;;;;5022706;28;20877;-58
2023/01/05 02:26:34;;;;;;;1.00;1.00;;;8.10;99.90;;;;;;5023969;28;20426;-60
2023/01/05 02:29:16;;;;;;;1.00;1.00;;;8.20;99.90;;;;;;5028152;28;21073;-57
2023/01/05 02:31:58;;;;;;;0.90;0.90;;;8.20;99.90;;;;;;5024837;28;20494;-58
2023/01/05 02:34:46;;;;;;;0.80;0.80;;;8.20;99.90;;;;;;5015330;28;20446;-57
2023/01/05 02:37:14;;;;;;;0.90;0.90;;;8.20;99.90;;;;;;5016185;28;20462;-56
2023/01/05 02:39:56;;;;;;;0.90;0.90;;;8.10;99.90;;;;;;5026865;28;20430;-58
2023/01/05 02:42:23;;;;;;;0.90;0.90;;;8.10;99.90;;;;;;5017560;28;20443;-57
2023/01/05 02:44:49;;;;;;;0.93;0.93;;;8.20;99.90;;;;;;5036123;28;20484;-57
2023/01/05 02:47:24;;;;;;;0.90;0.90;;;8.10;99.90;;;;;;5015537;28;20821;-58
2023/01/05 02:49:53;;;;;;;1.00;1.00;;;8.10;99.90;;;;;;5013568;28;22834;-56
2023/01/05 02:52:20;;;;;;;0.90;0.90;;;8.10;99.90;;;;;;5020189;28;20923;-58
2023/01/05 02:54:52;;;;;;;0.80;0.80;;;8.10;99.90;;;;;;5014312;28;20416;-57
2023/01/05 02:57:51;;;;;;;0.80;0.80;;;8.10;99.90;;;;;;5025210;28;20455;-58
2023/01/05 03:00:27;;;;;;;1.90;0.90;;;8.10;99.90;;;;;;5027618;28;20462;-58
2023/01/05 03:03:00;;;;;;;0.90;0.90;;;8.10;99.90;;;;;;5014601;28;20406;-58
2023/01/05 03:05:56;;;;;;;5.63;0.80;;;8.10;99.90;;;;;;5015319;28;21006;-58
2023/01/05 03:08:24;;;;;;;0.80;0.80;;;8.20;99.90;;;;;;5017489;28;20443;-58
2023/01/05 03:13:43;;;;;;;1.80;1.00;;;8.20;99.90;;;;;;5020781;28;20450;-58
2023/01/05 03:16:10;;;;;;;0.73;0.73;;;8.10;99.90;;;;;;5014942;28;21130;-58
2023/01/05 03:19:34;;;;;;;1.00;0.90;;;8.20;99.90;;;;;;5016742;28;20439;-58
2023/01/05 03:21:26;;;;;;;1.00;1.00;;;8.20;99.90;;;;;;5026120;28;20437;-58
2023/01/05 03:38:27;;;;;;;0.80;0.80;;;8.20;99.90;;;;;;5018461;28;20457;-57
2023/01/05 03:40:56;;;;;;;0.80;0.80;;;8.20;99.90;;;;;;5018020;28;20438;-58
2023/01/05 03:43:22;;;;;;;0.70;0.70;;;8.20;99.90;;;;;;5020031;28;20434;-58
2023/01/05 03:45:54;;;;;;;0.70;0.70;;;8.20;99.90;;;;;;5018742;28;20458;-58
2023/01/05 03:48:21;;;;;;;1.10;0.87;;;8.20;99.90;;;;;;5025737;28;20438;-58
2023/01/05 03:50:47;;;;;;;0.70;0.70;;;8.20;99.90;;;;;;5024925;28;20457;-58
2023/01/05 03:53:13;;;;;;;0.77;0.70;;;8.20;99.90;;;;;;5010750;28;20514;-58
2023/01/05 03:55:38;;;;;;;1.10;1.10;;;8.20;99.90;;;;;;5024167;28;20781;-58
2023/01/05 03:58:04;;;;;;;0.70;0.70;;;8.20;99.90;;;;;;5028232;28;20207;-58
2023/01/05 04:00:31;;;;;;;0.80;0.80;;;8.20;99.90;;;;;;5015733;28;20657;-61
2023/01/05 04:02:57;;;;;;;0.80;0.80;;;8.30;99.90;;;;;;5025466;28;20176;-57
2023/01/05 04:05:22;;;;;;;0.80;0.80;;;8.20;99.90;;;;;;5021600;28;20442;-58
2023/01/05 04:07:48;;;;;;;1.40;1.03;;;8.30;99.90;;;;;;5025386;28;20577;-58
2023/01/05 04:10:14;;;;;;;1.50;0.90;;;8.20;99.90;;;;;;5030957;28;20175;-57
2023/01/05 04:12:39;;;;;;;2.10;0.90;;;8.30;99.90;;;;;;5033750;28;20210;-57
2023/01/05 04:15:05;;;;;;;1.23;0.80;;;8.30;99.90;;;;;;5015844;28;20633;-58
2023/01/05 04:17:31;;;;;;;0.80;0.80;;;8.30;99.90;;;;;;5025677;28;20261;-58
2023/01/05 04:19:57;;;;;;;1.70;0.90;;;8.30;99.90;;;;;;5015861;28;20963;-58
2023/01/05 04:22:22;;;;;;;0.90;0.90;;;8.30;99.90;;;;;;5023057;28;20188;-58
2023/01/05 04:24:48;;;;;;;0.83;0.80;;;8.30;99.90;;;;;;5025664;28;20223;-57
2023/01/05 04:27:13;;;;;;;0.87;0.80;;;8.30;99.90;;;;;;5032316;28;20767;-57
2023/01/05 04:29:39;;;;;;;0.97;0.90;;;8.30;99.90;;;;;;5030400;28;20274;-58
2023/01/05 04:32:05;;;;;;;1.00;0.87;;;8.30;99.90;;;;;;5024659;28;20373;-57
2023/01/05 04:34:30;;;;;;;1.80;1.70;;;8.30;99.90;;;;;;5010154;28;20184;-57
2023/01/05 04:36:56;;;;;;;1.20;1.10;;;8.30;99.90;;;;;;5018981;28;20563;-58
2023/01/05 04:39:21;;;;;;;1.47;0.93;;;8.30;99.90;;;;;;5019248;28;20176;-57
2023/01/05 04:41:49;;;;;;;0.90;0.90;;;8.30;99.90;;;;;;5015124;28;20856;-57
2023/01/05 04:44:14;;;;;;;0.90;0.90;;;8.30;99.90;;;;;;5019983;28;20187;-57
2023/01/05 04:46:40;;;;;;;5.10;0.90;;;8.30;99.90;;;;;;5031632;28;20462;-57
2023/01/05 04:49:08;;;;;;;0.90;0.90;;;8.30;99.90;;;;;;5028628;28;20184;-58
2023/01/05 04:51:33;;;;;;;0.80;0.80;;;8.30;99.90;;;;;;5022980;28;20208;-57
2023/01/05 04:53:59;;;;;;;1.17;1.00;;;8.30;99.90;;;;;;5020334;28;20458;-51
2023/01/05 04:56:24;;;;;;;1.03;0.80;;;8.30;99.90;;;;;;5029784;28;20752;-59
2023/01/05 04:58:50;;;;;;;0.80;0.80;;;8.30;99.90;;;;;;5029034;28;20594;-60
2023/01/05 05:01:16;;;;;;;2.67;1.40;;;8.30;99.90;;;;;;5026033;28;20243;-57
2023/01/05 05:03:41;;;;;;;1.30;1.10;;;8.30;99.90;;;;;;5019534;28;20781;-59
2023/01/05 05:06:07;;;;;;;0.90;0.90;;;8.40;99.90;;;;;;5024628;28;20183;-59
2023/01/05 05:08:32;;;;;;;0.90;0.90;;;8.40;99.90;;;;;;5020967;28;20267;-57
2023/01/05 05:10:58;;;;;;;0.70;0.70;;;8.40;99.90;;;;;;5007055;28;20218;-60
2023/01/05 05:13:24;;;;;;;0.90;0.77;;;8.40;99.90;;;;;;5015965;28;20176;-59
2023/01/05 05:15:49;;;;;;;0.80;0.80;;;8.40;99.90;;;;;;5012275;28;22429;-60
2023/01/05 05:18:15;;;;;;;0.80;0.80;;;8.40;99.90;;;;;;5024206;28;20317;-59
2023/01/05 05:20:44;;;;;;;1.63;0.83;;;8.30;99.90;;;;;;5020700;28;20180;-59
2023/01/05 05:23:10;;;;;;;0.97;0.80;;;8.40;99.90;;;;;;5020307;28;20179;-58
2023/01/05 05:25:36;;;;;;;0.80;0.80;;;8.30;99.90;;;;;;5024876;28;20435;-59
2023/01/05 05:28:01;;;;;;;0.90;0.90;;;8.40;99.90;;;;;;5023654;28;20792;-58
2023/01/05 05:30:27;;;;;;;0.77;0.77;;;8.40;99.90;;;;;;5021195;28;20263;-58
2023/01/05 05:32:52;;;;;;;0.80;0.80;;;8.40;99.90;;;;;;5019972;28;20204;-58
2023/01/05 05:35:18;;;;;;;0.80;0.80;;;8.40;99.90;;;;;;5019135;28;20671;-58
2023/01/05 05:37:44;;;;;;;0.80;0.80;;;8.40;99.90;;;;;;5021909;28;20203;-58
2023/01/05 05:40:10;;;;;;;0.90;0.90;;;8.40;99.90;;;;;;5037981;28;20581;-59
2023/01/05 05:42:36;;;;;;;0.97;0.87;;;8.40;99.90;;;;;;5020640;28;20201;-57
2023/01/05 05:45:02;;;;;;;1.10;1.00;;;8.40;99.90;;;;;;5023278;28;20441;-57
2023/01/05 05:47:27;;;;;;;1.10;1.07;;;8.40;99.90;;;;;;5023338;28;20285;-58
2023/01/05 05:49:53;;;;;;;0.70;0.70;;;8.40;99.90;;;;;;5019125;28;20434;-58
2023/01/05 05:52:18;;;;;;;0.83;0.83;;;8.40;99.90;;;;;;5010522;28;20216;-58
2023/01/05 05:54:44;;;;;;;0.80;0.80;;;8.40;99.90;;;;;;5026250;28;20271;-57
2023/01/05 05:57:10;;;;;;;1.57;0.90;;;8.40;99.90;;;;;;5027028;28;20196;-58
2023/01/05 05:59:35;;;;;;;0.93;0.93;;;8.30;99.90;;;;;;5020952;28;20243;-58
2023/01/05 06:02:01;;;;;;;4.80;1.00;;;8.40;99.90;;;;;;5021211;28;20772;-58
2023/01/05 06:04:26;;;;;;;2.90;0.90;;;8.30;99.90;;;;;;5010608;28;20191;-58
2023/01/05 06:06:52;;;;;;;1.90;0.97;;;8.30;99.90;;;;;;5029865;28;20207;-58
2023/01/05 06:09:18;;;;;;;1.10;1.00;;;8.30;99.90;;;;;;5029462;28;20187;-58
2023/01/05 06:11:43;;;;;;;1.20;1.10;;;8.30;99.90;;;;;;5033420;28;20202;-58
2023/01/05 06:14:09;;;;;;;0.80;0.80;;;8.30;99.90;;;;;;5016367;28;20181;-58
2023/01/05 06:16:34;;;;;;;1.00;1.00;;;8.40;99.90;;;;;;5024276;28;20200;-59
2023/01/05 06:19:00;;;;;;;3.83;1.00;;;8.40;99.90;;;;;;5021045;28;20187;-58
2023/01/05 06:21:26;;;;;;;1.17;1.00;;;8.40;99.90;;;;;;5017070;28;20199;-58
2023/01/05 06:23:51;;;;;;;0.93;0.93;;;8.40;99.90;;;;;;5019955;28;20263;-58
2023/01/05 06:26:17;;;;;;;3.90;1.07;;;8.40;99.90;;;;;;5009309;28;20201;-59
2023/01/05 06:28:42;;;;;;;1.40;0.97;;;8.40;99.90;;;;;;5021498;28;20183;-59
2023/01/05 06:31:08;;;;;;;0.97;0.97;;;8.40;99.90;;;;;;5019844;28;20207;-59
2023/01/05 06:33:34;;;;;;;2.40;1.00;;;8.40;99.90;;;;;;5018853;28;20274;-56
2023/01/05 06:35:59;;;;;;;0.83;0.83;;;8.40;99.90;;;;;;5026809;28;20204;-58
2023/01/05 06:38:25;;;;;;;1.30;0.97;;;8.40;99.90;;;;;;5022649;28;20172;-58
2023/01/05 06:40:51;;;;;;;1.70;1.00;;;8.40;99.90;;;;;;5025416;28;20582;-60
2023/01/05 06:43:17;;;;;;;1.37;0.80;;;8.40;99.90;;;;;;5025579;28;20167;-56
2023/01/05 06:45:43;;;;;;;1.50;1.40;;;8.40;99.90;;;;;;5026842;28;20453;-63
2023/01/05 06:48:09;;;;;;;2.20;1.60;;;8.40;99.90;;;;;;5020147;28;20238;-58
2023/01/05 06:50:34;;;;;;;2.97;1.77;;;8.40;99.90;;;;;;5016334;28;20255;-60
2023/01/05 06:53:00;;;;;;;1.60;1.50;;;8.40;99.90;;;;;;5018651;28;24125;-59
2023/01/05 06:55:26;;;;;;;1.77;1.63;;;8.40;99.90;;;;;;5023507;28;20583;-59
2023/01/05 06:57:51;;;;;;;7.30;1.13;;;8.40;99.90;;;;;;5021531;28;20431;-59
2023/01/05 07:00:17;;;;;;;0.93;0.93;;;8.40;99.90;;;;;;5022789;28;20187;-60
2023/01/05 07:02:43;;;;;;;1.00;0.90;;;8.40;99.90;;;;;;5015175;28;20884;-58
2023/01/05 07:05:09;;;;;;;3.93;1.00;;;8.40;99.90;;;;;;5024957;28;20422;-58
2023/01/05 07:07:35;;;;;;;0.80;0.80;;;8.40;99.90;;;;;;5024164;28;20237;-59
2023/01/05 07:10:01;;;;;;;2.40;0.90;;;8.40;99.90;;;;;;5019101;28;20168;-59
2023/01/05 07:12:27;;;;;;;1.87;1.00;;;8.40;99.90;;;;;;5018977;28;20553;-59
2023/01/05 07:14:52;;;;;;;1.43;1.00;;;8.40;99.90;;;;;;5027751;28;20827;-60
2023/01/05 07:17:18;;;;;;;3.33;1.20;;;8.30;99.90;;;;;;5023034;28;20215;-60
2023/01/05 07:19:43;;;;;;;1.37;0.90;;;8.40;99.90;;;;;;5023584;28;20217;-58
2023/01/05 07:22:09;;;;;;;1.30;1.20;;;8.40;99.90;;;;;;5024252;28;20173;-59
2023/01/05 07:24:34;;;;;;;1.80;1.10;;;8.30;99.90;;;;;;5024623;28;20207;-58
2023/01/05 07:27:01;;;;;;;1.10;0.90;;;8.30;99.90;;;;;;5025055;28;20492;-59
2023/01/05 07:29:26;;;;;;;1.23;0.80;;;8.40;99.90;;;;;;5017229;28;20184;-58
2023/01/05 07:31:52;;;;;;;1.17;1.07;;;8.40;99.90;;;;;;5029414;28;20449;-59
2023/01/05 07:34:19;;;;;;;0.90;0.90;;;8.40;99.90;;;;;;5020407;28;20608;-59
2023/01/05 07:36:44;;;;;;;0.97;0.90;;;8.40;99.90;;;;;;5026994;28;20202;-61
2023/01/05 07:39:10;;;;;;;0.90;0.90;;;8.40;99.90;;;;;;5029069;28;20812;-60
2023/01/05 07:41:35;;;;;;;1.37;1.27;;;8.40;99.90;;;;;;5032520;28;20171;-59
2023/01/05 07:44:01;;;;;;;0.93;0.93;;;8.40;99.90;;;;;;5027028;28;20268;-58
2023/01/05 07:46:27;;;;;;;1.23;1.13;;;8.40;99.90;;;;;;5027060;28;20215;-58
2023/01/05 07:48:52;;;;;;;1.47;0.90;;;8.40;99.90;;;;;;5023102;28;20183;-60
2023/01/05 07:51:18;;;;;;;1.10;1.00;;;8.40;99.90;;;;;;5022814;28;20676;-59
2023/01/05 07:53:44;;;;;;;1.30;1.20;;;8.40;99.90;;;;;;5040715;28;20194;-58
2023/01/05 07:56:11;;;;;;;1.70;1.20;;;8.40;99.90;;;;;;5027637;28;20176;-58
2023/01/05 07:58:37;;;;;;;6.10;1.40;;;8.40;99.90;;;;;;5011816;28;20184;-59
2023/01/05 08:01:07;;;;;;;1.87;1.10;;;8.50;99.90;;;;;;5026988;28;20429;-59
2023/01/05 08:03:33;;;;;;;1.20;1.10;;;8.50;99.90;;;;;;5026994;28;20453;-60
2023/01/05 08:06:07;;;;;;;1.00;0.90;;;8.50;99.90;;;;;;5029971;28;20935;-60
2023/01/05 08:08:33;;;;;;;1.50;1.33;;;8.40;99.90;;;;;;5029667;28;20194;-64
2023/01/05 08:10:59;;;;;;;1.10;1.00;;;8.40;99.90;;;;;;5026640;28;20451;-59
2023/01/05 08:16:09;;;;;;;1.50;1.40;;;8.40;99.90;;;;;;5032486;28;21167;-58
2023/01/05 08:18:34;;;;;;;1.50;1.40;;;8.40;99.90;;;;;;5032737;28;20450;-58
2023/01/05 08:21:03;;;;;;;1.53;1.30;;;8.40;99.90;;;;;;5028105;28;20175;-58
2023/01/05 08:23:30;;;;;;;1.30;1.20;;;8.50;99.90;;;;;;5030671;28;20233;-60
2023/01/05 08:25:56;;;;;;;1.50;1.40;;;8.50;99.90;;;;;;5038482;28;20438;-58
2023/01/05 08:28:25;;;;;;;1.47;1.37;;;8.50;99.90;;;;;;5029472;28;20445;-61
2023/01/05 08:30:50;;;;;;;1.73;1.33;;;8.50;99.90;;;;;;5031266;28;20203;-59
2023/01/05 08:33:16;;;;;;;1.67;1.30;;;8.50;99.90;;;;;;5033347;28;20454;-61
2023/01/05 08:35:43;;;;;;;1.23;1.10;;;8.50;99.90;;;;;;5029476;28;20184;-60
2023/01/05 08:38:09;;;;;;;1.50;1.30;;;8.50;99.90;;;;;;5027821;28;20732;-58
2023/01/05 08:40:36;;;;;;;4.50;1.40;;;8.50;99.90;;;;;;5026176;28;20406;-60
2023/01/05 08:43:03;;;;;;;1.53;1.40;;;8.50;99.90;;;;;;5030777;28;20422;-59
2023/01/05 08:45:29;;;;;;;1.40;1.20;;;8.50;99.90;;;;;;5020713;28;20441;-60
2023/01/05 08:47:54;;;;;;;1.00;1.00;;;8.60;99.90;;;;;;5029536;28;20454;-60
2023/01/05 08:50:20;;;;;;;1.30;1.17;;;8.60;99.90;;;;;;5018836;28;20194;-59
2023/01/05 08:52:46;;;;;;;1.23;1.13;;;8.60;99.90;;;;;;5025835;28;20207;-59
2023/01/05 08:55:11;;;;;;;1.60;1.50;;;8.60;99.90;;;;;;5019524;28;20176;-59
2023/01/05 08:57:37;;;;;;;1.83;1.63;;;8.60;99.90;;;;;;5042247;28;20215;-60
2023/01/05 09:00:04;;;;;;;2.53;1.20;;;8.60;99.90;;;;;;5024864;28;20287;-58
2023/01/05 09:02:30;;;;;;;1.40;1.20;;;8.60;99.90;;;;;;5019883;28;20208;-59
2023/01/05 09:04:56;;;;;;;1.40;1.30;;;8.60;99.90;;;;;;5025668;28;20436;-57
2023/01/05 09:07:21;;;;;;;1.80;1.30;;;8.60;99.90;;;;;;5027787;28;20230;-59
2023/01/05 09:09:47;;;;;;;3.67;0.90;;;8.60;99.90;;;;;;5022896;28;20176;-60
2023/01/05 09:12:12;;;;;;;0.90;0.90;;;8.60;99.90;;;;;;5023038;28;20561;-59
2023/01/05 09:14:38;;;;;;;1.30;1.20;;;8.60;99.90;;;;;;5023210;28;20182;-58
2023/01/05 09:17:04;;;;;;;1.40;1.30;;;8.60;99.90;;;;;;5027795;28;20199;-59
2023/01/05 09:19:30;;;;;;;1.63;1.30;;;8.60;99.90;;;;;;5026858;28;20160;-59
2023/01/05 09:21:55;;;;;;;2.07;1.70;;;8.60;99.90;;;;;;5023076;28;20214;-58
2023/01/05 09:24:21;;;;;;;1.73;1.63;;;8.60;99.90;;;;;;5022902;28;20786;-59
2023/01/05 09:26:47;;;;;;;1.70;1.60;;;8.70;99.90;;;;;;5023727;28;20402;-59
2023/01/05 09:29:12;;;;;;;2.33;2.00;;;8.60;99.90;;;;;;5018847;28;20196;-60
2023/01/05 09:31:42;;;;;;;2.30;2.13;;;8.70;99.90;;;;;;5023984;28;20246;-60
2023/01/05 09:34:08;;;;;;;4.90;2.87;;;8.70;99.90;;;;;;5019713;28;20175;-59
2023/01/05 09:36:33;;;;;;;2.40;2.20;;;8.80;99.90;;;;;;5023538;28;20710;-58
2023/01/05 09:38:59;;;;;;;5.00;3.80;;;8.80;99.90;;;;;;5026373;28;20441;-59
2023/01/05 09:41:43;;;;;;;5.67;3.60;;;8.80;99.90;;;;;;5025566;28;20176;-59
2023/01/05 09:44:27;;;;;;;4.20;2.80;;;8.90;99.90;;;;;;5015426;28;20675;-59
2023/01/05 09:46:58;;;;;;;4.20;2.00;;;8.90;99.90;;;;;;5025417;28;20465;-59
2023/01/05 09:49:25;;;;;;;2.50;2.03;;;8.90;99.90;;;;;;5028772;28;20429;-58
2023/01/05 09:52:08;;;;;;;1.70;1.60;;;8.90;99.90;;;;;;5018772;28;20975;-58
2023/01/05 09:54:35;;;;;;;2.03;1.80;;;8.90;99.90;;;;;;5023417;28;20430;-59
2023/01/05 09:57:02;;;;;;;2.43;2.17;;;9.00;99.90;;;;;;5024960;28;20434;-58
2023/01/05 09:59:35;;;;;;;2.93;2.53;;;9.00;99.90;;;;;;5022486;28;20424;-58
2023/01/05 10:02:08;;;;;;;3.53;2.27;;;9.00;99.90;;;;;;5021908;28;20784;-58
2023/01/05 10:04:34;;;;;;;4.60;2.30;;;9.10;99.90;;;;;;5023259;28;20423;-59
2023/01/05 10:07:07;;;;;;;5.07;3.17;;;9.10;99.90;;;;;;5030521;28;20512;-59
2023/01/05 10:09:38;;;;;;;5.70;3.90;;;9.20;99.90;;;;;;5028091;28;20418;-60
2023/01/05 10:15:20;;;;;;;3.57;2.43;;;9.10;99.90;;;;;;5024651;28;20954;-58
2023/01/05 10:17:46;;;;;;;1.77;1.53;;;9.20;99.90;;;;;;5021902;28;20534;-58
2023/01/05 10:20:29;;;;;;;3.20;2.00;;;9.20;99.90;;;;;;5022925;28;20493;-59
2023/01/05 10:23:13;;;;;;;1.83;1.73;;;9.20;99.90;;;;;;5020776;28;20474;-59
2023/01/05 10:26:03;;;;;;;1.43;1.33;;;9.20;99.90;;;;;;5023890;28;20441;-59
2023/01/05 10:28:52;;;;;;;6.43;2.40;;;9.20;99.90;;;;;;5033797;28;20435;-61
2023/01/05 10:31:23;;;;;;;5.77;1.17;;;9.20;99.90;;;;;;5015614;28;20470;-59
2023/01/05 10:34:38;;;;;;;6.30;2.70;;;9.20;99.90;;;;;;5019656;28;21135;-59
2023/01/05 10:37:30;;;;;;;3.83;1.27;;;9.30;99.90;;;;;;5028421;28;20500;-59
2023/01/05 10:39:56;;;;;;;2.00;1.20;;;9.30;99.90;;;;;;5018239;28;20442;-60
2023/01/05 10:42:38;;;;;;;2.10;1.10;;;9.30;99.90;;;;;;5020606;28;20423;-59
2023/01/05 10:45:09;;;;;;;2.70;1.33;;;9.30;99.90;;;;;;5024902;28;20758;-59
2023/01/05 10:47:37;;;;;;;6.53;1.60;;;9.30;99.90;;;;;;5039316;28;20451;-58
2023/01/05 10:50:27;;;;;;;4.60;1.50;;;9.40;99.90;;;;;;5024451;28;20433;-59
2023/01/05 10:52:53;;;;;;;4.50;1.60;;;9.50;99.90;;;;;;5027511;28;20454;-58
2023/01/05 10:55:20;;;;;;;7.60;1.53;;;9.70;99.90;;;;;;5014898;28;20426;-60
2023/01/05 10:57:46;;;;;;;3.97;1.73;;;9.70;99.90;;;;;;5019139;28;20458;-60
2023/01/05 11:00:20;;;;;;;7.23;1.30;;;9.70;99.90;;;;;;5019042;28;20854;-61
2023/01/05 11:02:57;;;;;;;4.73;1.60;;;9.60;99.90;;;;;;5023702;28;20513;-59
2023/01/05 11:05:26;;;;;;;3.93;1.40;;;9.60;99.90;;;;;;5023784;28;21147;-58
2023/01/05 11:07:58;;;;;;;3.00;1.40;;;9.50;99.90;;;;;;5027285;28;20457;-58
2023/01/05 11:10:49;;;;;;;3.47;2.00;;;9.40;99.90;;;;;;5023889;28;20521;-60
2023/01/05 11:13:14;;;;;;;8.33;1.50;;;9.30;99.90;;;;;;5007631;28;20446;-61
2023/01/05 11:15:43;;;;;;;4.50;1.67;;;9.30;99.90;;;;;;5016999;28;20433;-60
2023/01/05 11:18:20;;;;;;;3.50;1.60;;;9.30;99.90;;;;;;5023337;28;20199;-60
2023/01/05 11:21:05;;;;;;;9.43;1.70;;;9.30;99.90;;;;;;5025307;28;20441;-60
2023/01/05 11:23:43;;;;;;;4.00;1.40;;;9.30;99.90;;;;;;5017719;28;20439;-59
2023/01/05 11:26:36;;;;;;;2.90;1.40;;;9.30;99.90;;;;;;5023356;28;20414;-59
2023/01/05 11:29:07;;;;;;;3.40;2.53;;;9.20;99.90;;;;;;5028098;28;20438;-60
2023/01/05 11:31:33;;;;;;;7.03;1.90;;;9.30;99.90;;;;;;5020969;28;20458;-60
2023/01/05 11:34:06;;;;;;;7.27;2.00;;;9.40;99.90;;;;;;5015539;28;20431;-58
2023/01/05 11:36:32;;;;;;;3.90;1.70;;;9.50;99.90;;;;;;5023011;28;20200;-59
2023/01/05 11:38:58;;;;;;;3.03;1.70;;;9.50;99.90;;;;;;5019561;28;21089;-59
2023/01/05 11:41:24;;;;;;;9.10;2.40;;;9.60;99.90;;;;;;5023704;28;20709;-58
2023/01/05 11:43:53;;;;;;;4.70;1.87;;;9.60;99.90;;;;;;5025341;28;20186;-58
2023/01/05 11:46:20;;;;;;;4.30;1.47;;;9.60;99.90;;;;;;5022681;28;20465;-59
2023/01/05 11:48:52;;;;;;;5.30;1.80;;;9.70;99.90;;;;;;5018937;28;21081;-59
2023/01/05 11:51:35;;;;;;;6.10;1.87;;;9.60;99.90;;;;;;5029219;28;20463;-58
2023/01/05 11:54:01;;;;;;;4.30;1.50;;;9.60;99.90;;;;;;5024523;28;20431;-58
2023/01/05 11:56:27;;;;;;;1.43;1.23;;;9.60;99.90;;;;;;5018556;28;20810;-58
2023/01/05 11:58:54;;;;;;;3.00;1.70;;;9.60;99.90;;;;;;5018102;28;20217;-59
2023/01/05 12:01:57;;;;;;;4.50;1.53;;;9.60;99.90;;;;;;5026793;28;20183;-58
2023/01/05 12:04:44;;;;;;;2.90;1.60;;;9.60;99.90;;;;;;5024973;28;20439;-59
2023/01/05 12:07:43;;;;;;;3.73;1.90;;;9.70;99.90;;;;;;5024057;28;20472;-59
2023/01/05 12:10:28;;;;;;;5.13;1.77;;;9.70;99.90;;;;;;5015829;28;20422;-59
2023/01/05 12:13:12;;;;;;;4.00;1.30;;;9.80;99.90;;;;;;5021790;28;20541;-59
2023/01/05 12:15:53;;;;;;;6.20;1.70;;;9.80;99.90;;;;;;5016867;28;20501;-59
2023/01/05 12:18:38;;;;;;;2.73;1.70;;;9.80;99.90;;;;;;5024198;28;20453;-59
2023/01/05 12:21:21;;;;;;;4.30;1.47;;;9.90;99.90;;;;;;5020486;28;20521;-59
2023/01/05 12:23:50;;;;;;;5.33;1.60;;;9.90;99.90;;;;;;5020721;28;20926;-59
2023/01/05 12:26:31;;;;;;;4.63;1.50;;;9.90;99.90;;;;;;5020483;28;20435;-58
2023/01/05 12:29:31;;;;;;;3.70;1.77;;;9.90;99.90;;;;;;5017940;28;20969;-60
2023/01/05 12:32:09;;;;;;;2.93;1.90;;;10.00;99.90;;;;;;5018612;28;20484;-58
2023/01/05 12:34:53;;;;;;;4.13;1.40;;;10.10;99.90;;;;;;5026337;28;20434;-59
2023/01/05 12:37:25;;;;;;;6.00;1.43;;;10.10;99.90;;;;;;5018441;28;20450;-59
2023/01/05 12:40:05;;;;;;;2.43;1.40;;;10.20;99.90;;;;;;5027939;28;20513;-59
2023/01/05 12:42:37;;;;;;;3.20;1.30;;;10.20;99.90;;;;;;5024153;28;20524;-60
2023/01/05 12:45:44;;;;;;;1.73;1.20;;;10.30;99.90;;;;;;5018594;28;20426;-59
2023/01/05 12:48:41;;;;;;;2.77;1.30;;;10.40;99.90;;;;;;5023504;28;21226;-59
2023/01/05 12:51:26;;;;;;;2.80;1.20;;;10.50;99.90;;;;;;5026619;28;20470;-59
2023/01/05 12:53:54;;;;;;;4.93;1.33;;;10.60;99.90;;;;;;5028797;28;20549;-59
2023/01/05 12:56:29;;;;;;;6.60;1.80;;;10.60;99.90;;;;;;5023354;28;20473;-59
2023/01/05 12:59:22;;;;;;;3.57;1.30;;;10.60;99.90;;;;;;5031510;28;20437;-60
2023/01/05 13:02:06;;;;;;;2.50;1.40;;;10.60;99.90;;;;;;5023931;28;20434;-59
2023/01/05 13:04:46;;;;;;;2.40;1.40;;;10.60;99.90;;;;;;5022318;28;21154;-61
2023/01/05 13:07:22;;;;;;;2.60;1.40;;;10.50;99.90;;;;;;5026424;28;20493;-59
2023/01/05 13:09:56;;;;;;;2.83;1.40;;;10.50;99.90;;;;;;5024345;28;20446;-59
2023/01/05 13:12:22;;;;;;;2.83;1.40;;;10.40;99.90;;;;;;5019986;28;20547;-60
2023/01/05 13:15:20;;;;;;;2.67;1.50;;;10.40;99.90;;;;;;5017956;28;21022;-59
2023/01/05 13:17:48;;;;;;;1.53;1.43;;;10.30;99.90;;;;;;5020704;28;20446;-59
2023/01/05 13:20:17;;;;;;;4.77;1.80;;;10.30;99.90;;;;;;5023232;28;20504;-60
2023/01/05 13:22:45;;;;;;;3.90;1.60;;;10.20;99.90;;;;;;5023145;28;20446;-58
2023/01/05 13:25:22;;;;;;;2.20;1.57;;;10.20;99.90;;;;;;5027889;28;20430;-59
2023/01/05 13:27:48;;;;;;;6.90;1.70;;;10.20;99.90;;;;;;5021970;28;20592;-59
2023/01/05 13:30:37;;;;;;;2.17;1.83;;;10.10;99.90;;;;;;5027792;28;20604;-59
2023/01/05 13:33:40;;;;;;;4.57;2.10;;;10.10;99.90;;;;;;5019589;28;20222;-60
2023/01/05 13:36:24;;;;;;;3.73;2.23;;;10.10;99.90;;;;;;5019360;28;20514;-59
2023/01/05 13:39:08;;;;;;;3.07;1.60;;;10.10;99.90;;;;;;5020651;28;20442;-58
2023/01/05 13:42:01;;;;;;;3.57;1.93;;;10.10;99.90;;;;;;5021454;28;20435;-60
2023/01/05 13:44:51;;;;;;;2.80;1.50;;;10.10;99.90;;;;;;5023817;28;20530;-60
2023/01/05 13:47:29;;;;;;;2.30;1.60;;;10.00;99.90;;;;;;5027079;28;20560;-59
2023/01/05 13:50:18;;;;;;;1.93;1.53;;;10.00;99.90;;;;;;5026231;28;20442;-60